sensor_id;sensor_type;location;lat;lon;timestamp;P1;durP1;ratioP1;P2;durP2;ratioP2
17818;SDS011;9034;50.284;19.310;2023-06-14T00:00:36;10.85;;;8.25;;
17818;SDS011;9034;50.284;19.310;2023-06-14T00:01:42;11.68;;;7.95;;
17818;SDS011;9034;50.284;19.310;2023-06-14T00:02:47;13.20;;;8.40;;
17818;SDS011;9034;50.284;19.310;2023-06-14T00:03:49;12.13;;;8.07;;
17818;SDS011;9034;50.284;19.310;2023-06-14T00:04:52;10.45;;;8.15;;
17818;SDS011;9034;50.284;19.310;2023-06-14T00:05:54;12.20;;;8.48;;
17818;SDS011;9034;50.284;19.310;2023-06-14T00:06:57;12.95;;;9.52;;
17818;SDS011;9034;50.284;19.310;2023-06-14T00:07:59;11.20;;;7.78;;
17818;SDS011;9034;50.284;19.310;2023-06-14T00:09:03;11.25;;;8.40;;
17818;SDS011;9034;50.284;19.310;2023-06-14T00:10:06;10.02;;;8.05;;
17818;SDS011;9034;50.284;19.310;2023-06-14T00:11:09;12.88;;;9.85;;
17818;SDS011;9034;50.284;19.310;2023-06-14T00:12:11;13.95;;;8.85;;
17818;SDS011;9034;50.284;19.310;2023-06-14T00:13:15;13.27;;;8.93;;
17818;SDS011;9034;50.284;19.310;2023-06-14T00:14:17;11.20;;;8.23;;
17818;SDS011;9034;50.284;19.310;2023-06-14T00:15:20;12.70;;;8.60;;
17818;SDS011;9034;50.284;19.310;2023-06-14T00:16:22;10.43;;;8.25;;
17818;SDS011;9034;50.284;19.310;2023-06-14T00:17:26;11.38;;;8.60;;
17818;SDS011;9034;50.284;19.310;2023-06-14T00:18:31;11.82;;;8.38;;
17818;SDS011;9034;50.284;19.310;2023-06-14T00:19:34;9.32;;;7.97;;
17818;SDS011;9034;50.284;19.310;2023-06-14T00:20:38;10.00;;;7.63;;
17818;SDS011;9034;50.284;19.310;2023-06-14T00:21:43;10.25;;;7.80;;
17818;SDS011;9034;50.284;19.310;2023-06-14T00:22:45;11.05;;;7.63;;
17818;SDS011;9034;50.284;19.310;2023-06-14T00:23:48;8.82;;;6.82;;
17818;SDS011;9034;50.284;19.310;2023-06-14T00:24:50;8.60;;;7.65;;
17818;SDS011;9034;50.284;19.310;2023-06-14T00:25:55;9.48;;;7.43;;
17818;SDS011;9034;50.284;19.310;2023-06-14T00:26:57;9.73;;;7.90;;
17818;SDS011;9034;50.284;19.310;2023-06-14T00:28:00;8.00;;;7.20;;
17818;SDS011;9034;50.284;19.310;2023-06-14T00:29:07;10.85;;;7.40;;
17818;SDS011;9034;50.284;19.310;2023-06-14T00:30:10;10.82;;;8.27;;
17818;SDS011;9034;50.284;19.310;2023-06-14T00:31:13;8.63;;;7.03;;
17818;SDS011;9034;50.284;19.310;2023-06-14T00:32:17;12.10;;;7.80;;
17818;SDS011;9034;50.284;19.310;2023-06-14T00:33:19;9.48;;;8.13;;
17818;SDS011;9034;50.284;19.310;2023-06-14T00:34:22;9.52;;;7.80;;
17818;SDS011;9034;50.284;19.310;2023-06-14T00:35:24;10.13;;;7.72;;
17818;SDS011;9034;50.284;19.310;2023-06-14T00:36:28;10.98;;;8.23;;
17818;SDS011;9034;50.284;19.310;2023-06-14T00:37:30;11.07;;;8.43;;
17818;SDS011;9034;50.284;19.310;2023-06-14T00:38:33;9.98;;;7.35;;
17818;SDS011;9034;50.284;19.310;2023-06-14T00:39:35;13.43;;;8.68;;
17818;SDS011;9034;50.284;19.310;2023-06-14T00:40:38;10.63;;;8.65;;
17818;SDS011;9034;50.284;19.310;2023-06-14T00:41:40;9.75;;;7.68;;
17818;SDS011;9034;50.284;19.310;2023-06-14T00:42:43;13.95;;;8.02;;
17818;SDS011;9034;50.284;19.310;2023-06-14T00:43:45;8.55;;;7.13;;
17818;SDS011;9034;50.284;19.310;2023-06-14T00:44:50;10.07;;;7.47;;
17818;SDS011;9034;50.284;19.310;2023-06-14T00:45:52;11.50;;;7.05;;
17818;SDS011;9034;50.284;19.310;2023-06-14T00:46:55;10.27;;;7.75;;
17818;SDS011;9034;50.284;19.310;2023-06-14T00:47:57;8.63;;;7.03;;
17818;SDS011;9034;50.284;19.310;2023-06-14T00:49:00;11.90;;;7.63;;
17818;SDS011;9034;50.284;19.310;2023-06-14T00:50:03;9.73;;;7.82;;
17818;SDS011;9034;50.284;19.310;2023-06-14T00:51:09;8.15;;;6.10;;
17818;SDS011;9034;50.284;19.310;2023-06-14T00:52:12;8.20;;;6.40;;
17818;SDS011;9034;50.284;19.310;2023-06-14T00:53:16;8.13;;;7.22;;
17818;SDS011;9034;50.284;19.310;2023-06-14T00:54:19;9.13;;;7.30;;
17818;SDS011;9034;50.284;19.310;2023-06-14T00:55:21;11.05;;;7.13;;
17818;SDS011;9034;50.284;19.310;2023-06-14T00:56:23;9.95;;;6.95;;
17818;SDS011;9034;50.284;19.310;2023-06-14T00:57:26;8.65;;;6.93;;
17818;SDS011;9034;50.284;19.310;2023-06-14T00:58:28;7.90;;;6.70;;
17818;SDS011;9034;50.284;19.310;2023-06-14T00:59:31;10.23;;;7.03;;
17818;SDS011;9034;50.284;19.310;2023-06-14T01:00:35;9.00;;;6.85;;
17818;SDS011;9034;50.284;19.310;2023-06-14T01:01:38;8.23;;;5.80;;
17818;SDS011;9034;50.284;19.310;2023-06-14T01:02:42;8.27;;;5.82;;
17818;SDS011;9034;50.284;19.310;2023-06-14T01:03:46;7.68;;;6.38;;
17818;SDS011;9034;50.284;19.310;2023-06-14T01:04:48;5.32;;;4.82;;
17818;SDS011;9034;50.284;19.310;2023-06-14T01:05:53;6.75;;;6.05;;
17818;SDS011;9034;50.284;19.310;2023-06-14T01:07:07;8.43;;;6.47;;
17818;SDS011;9034;50.284;19.310;2023-06-14T01:08:20;6.72;;;5.85;;
17818;SDS011;9034;50.284;19.310;2023-06-14T01:09:27;7.35;;;5.95;;
17818;SDS011;9034;50.284;19.310;2023-06-14T01:10:36;8.65;;;7.32;;
17818;SDS011;9034;50.284;19.310;2023-06-14T01:11:47;9.52;;;6.53;;
17818;SDS011;9034;50.284;19.310;2023-06-14T01:12:55;9.20;;;6.97;;
17818;SDS011;9034;50.284;19.310;2023-06-14T01:14:01;7.13;;;5.53;;
17818;SDS011;9034;50.284;19.310;2023-06-14T01:15:05;8.88;;;6.28;;
17818;SDS011;9034;50.284;19.310;2023-06-14T01:16:09;8.80;;;6.82;;
17818;SDS011;9034;50.284;19.310;2023-06-14T01:17:12;8.18;;;6.78;;
17818;SDS011;9034;50.284;19.310;2023-06-14T01:18:18;8.48;;;6.70;;
17818;SDS011;9034;50.284;19.310;2023-06-14T01:19:21;7.93;;;6.63;;
17818;SDS011;9034;50.284;19.310;2023-06-14T01:20:27;8.07;;;6.78;;
17818;SDS011;9034;50.284;19.310;2023-06-14T01:21:32;10.80;;;7.80;;
17818;SDS011;9034;50.284;19.310;2023-06-14T01:22:48;11.38;;;7.22;;
17818;SDS011;9034;50.284;19.310;2023-06-14T01:23:52;11.55;;;7.85;;
17818;SDS011;9034;50.284;19.310;2023-06-14T01:24:56;10.88;;;8.68;;
17818;SDS011;9034;50.284;19.310;2023-06-14T01:25:59;11.45;;;8.32;;
17818;SDS011;9034;50.284;19.310;2023-06-14T01:27:07;13.00;;;8.13;;
17818;SDS011;9034;50.284;19.310;2023-06-14T01:28:10;11.80;;;8.77;;
17818;SDS011;9034;50.284;19.310;2023-06-14T01:29:14;12.35;;;9.30;;
17818;SDS011;9034;50.284;19.310;2023-06-14T01:30:19;12.10;;;10.50;;
17818;SDS011;9034;50.284;19.310;2023-06-14T01:31:23;12.52;;;10.13;;
17818;SDS011;9034;50.284;19.310;2023-06-14T01:32:25;17.45;;;13.55;;
17818;SDS011;9034;50.284;19.310;2023-06-14T01:33:29;17.80;;;14.18;;
17818;SDS011;9034;50.284;19.310;2023-06-14T01:34:32;14.60;;;11.93;;
17818;SDS011;9034;50.284;19.310;2023-06-14T01:37:05;14.13;;;9.32;;
17818;SDS011;9034;50.284;19.310;2023-06-14T01:38:10;11.38;;;9.00;;
17818;SDS011;9034;50.284;19.310;2023-06-14T01:39:14;11.90;;;9.88;;
17818;SDS011;9034;50.284;19.310;2023-06-14T01:40:17;13.30;;;9.70;;
17818;SDS011;9034;50.284;19.310;2023-06-14T01:41:20;10.75;;;8.68;;
17818;SDS011;9034;50.284;19.310;2023-06-14T01:42:26;11.25;;;8.65;;
17818;SDS011;9034;50.284;19.310;2023-06-14T01:43:29;8.88;;;7.97;;
17818;SDS011;9034;50.284;19.310;2023-06-14T01:44:32;10.45;;;8.18;;
17818;SDS011;9034;50.284;19.310;2023-06-14T01:45:35;11.68;;;9.20;;
17818;SDS011;9034;50.284;19.310;2023-06-14T01:46:39;10.57;;;9.43;;
17818;SDS011;9034;50.284;19.310;2023-06-14T01:47:43;11.00;;;8.93;;
17818;SDS011;9034;50.284;19.310;2023-06-14T01:48:46;10.57;;;8.57;;
17818;SDS011;9034;50.284;19.310;2023-06-14T01:49:49;12.00;;;8.13;;
17818;SDS011;9034;50.284;19.310;2023-06-14T01:50:51;10.35;;;8.07;;
17818;SDS011;9034;50.284;19.310;2023-06-14T01:51:54;8.70;;;7.75;;
17818;SDS011;9034;50.284;19.310;2023-06-14T01:52:56;9.88;;;8.55;;
17818;SDS011;9034;50.284;19.310;2023-06-14T01:54:01;9.75;;;8.48;;
17818;SDS011;9034;50.284;19.310;2023-06-14T01:55:03;12.02;;;8.43;;
17818;SDS011;9034;50.284;19.310;2023-06-14T01:56:06;10.30;;;8.27;;
17818;SDS011;9034;50.284;19.310;2023-06-14T01:57:08;7.93;;;7.13;;
17818;SDS011;9034;50.284;19.310;2023-06-14T01:58:11;9.73;;;8.18;;
17818;SDS011;9034;50.284;19.310;2023-06-14T01:59:14;11.43;;;9.65;;
17818;SDS011;9034;50.284;19.310;2023-06-14T02:00:17;9.52;;;8.50;;
17818;SDS011;9034;50.284;19.310;2023-06-14T02:01:19;9.70;;;8.50;;
17818;SDS011;9034;50.284;19.310;2023-06-14T02:02:23;12.02;;;8.50;;
17818;SDS011;9034;50.284;19.310;2023-06-14T02:03:25;11.32;;;8.73;;
17818;SDS011;9034;50.284;19.310;2023-06-14T02:04:28;13.13;;;9.07;;
17818;SDS011;9034;50.284;19.310;2023-06-14T02:05:30;13.63;;;8.90;;
17818;SDS011;9034;50.284;19.310;2023-06-14T02:06:33;12.65;;;8.85;;
17818;SDS011;9034;50.284;19.310;2023-06-14T02:07:36;12.60;;;9.32;;
17818;SDS011;9034;50.284;19.310;2023-06-14T02:08:38;12.85;;;9.05;;
17818;SDS011;9034;50.284;19.310;2023-06-14T02:09:42;14.38;;;9.60;;
17818;SDS011;9034;50.284;19.310;2023-06-14T02:10:45;13.13;;;10.90;;
17818;SDS011;9034;50.284;19.310;2023-06-14T02:11:48;14.88;;;10.18;;
17818;SDS011;9034;50.284;19.310;2023-06-14T02:12:50;17.80;;;9.93;;
17818;SDS011;9034;50.284;19.310;2023-06-14T02:13:52;16.80;;;10.50;;
17818;SDS011;9034;50.284;19.310;2023-06-14T02:14:56;13.93;;;9.60;;
17818;SDS011;9034;50.284;19.310;2023-06-14T02:15:59;12.77;;;9.80;;
17818;SDS011;9034;50.284;19.310;2023-06-14T02:17:05;15.68;;;10.10;;
17818;SDS011;9034;50.284;19.310;2023-06-14T02:18:08;13.23;;;9.82;;
17818;SDS011;9034;50.284;19.310;2023-06-14T02:19:11;13.25;;;9.52;;
17818;SDS011;9034;50.284;19.310;2023-06-14T02:20:13;16.85;;;9.75;;
17818;SDS011;9034;50.284;19.310;2023-06-14T02:21:16;13.20;;;9.45;;
17818;SDS011;9034;50.284;19.310;2023-06-14T02:22:20;17.00;;;11.65;;
17818;SDS011;9034;50.284;19.310;2023-06-14T02:23:23;20.90;;;11.40;;
17818;SDS011;9034;50.284;19.310;2023-06-14T02:24:25;13.15;;;9.90;;
17818;SDS011;9034;50.284;19.310;2023-06-14T02:25:29;17.60;;;10.50;;
17818;SDS011;9034;50.284;19.310;2023-06-14T02:26:31;13.55;;;9.25;;
17818;SDS011;9034;50.284;19.310;2023-06-14T02:27:34;14.20;;;9.90;;
17818;SDS011;9034;50.284;19.310;2023-06-14T02:28:37;13.20;;;9.88;;
17818;SDS011;9034;50.284;19.310;2023-06-14T02:29:43;15.35;;;9.48;;
17818;SDS011;9034;50.284;19.310;2023-06-14T02:30:44;11.63;;;9.38;;
17818;SDS011;9034;50.284;19.310;2023-06-14T02:31:47;10.68;;;8.93;;
17818;SDS011;9034;50.284;19.310;2023-06-14T02:32:50;9.38;;;8.30;;
17818;SDS011;9034;50.284;19.310;2023-06-14T02:33:54;11.43;;;9.48;;
17818;SDS011;9034;50.284;19.310;2023-06-14T02:34:56;10.98;;;8.88;;
17818;SDS011;9034;50.284;19.310;2023-06-14T02:36:00;12.30;;;9.05;;
17818;SDS011;9034;50.284;19.310;2023-06-14T02:37:04;12.02;;;9.60;;
17818;SDS011;9034;50.284;19.310;2023-06-14T02:38:06;11.85;;;9.68;;
17818;SDS011;9034;50.284;19.310;2023-06-14T02:39:08;13.43;;;10.15;;
17818;SDS011;9034;50.284;19.310;2023-06-14T02:40:12;12.23;;;9.20;;
17818;SDS011;9034;50.284;19.310;2023-06-14T02:41:16;12.13;;;9.02;;
17818;SDS011;9034;50.284;19.310;2023-06-14T02:42:18;13.82;;;9.27;;
17818;SDS011;9034;50.284;19.310;2023-06-14T02:43:21;13.80;;;9.00;;
17818;SDS011;9034;50.284;19.310;2023-06-14T02:44:24;13.05;;;8.77;;
17818;SDS011;9034;50.284;19.310;2023-06-14T02:45:28;12.98;;;8.52;;
17818;SDS011;9034;50.284;19.310;2023-06-14T02:46:31;10.93;;;7.93;;
17818;SDS011;9034;50.284;19.310;2023-06-14T02:47:33;15.80;;;9.60;;
17818;SDS011;9034;50.284;19.310;2023-06-14T02:48:36;14.43;;;9.05;;
17818;SDS011;9034;50.284;19.310;2023-06-14T02:49:37;12.02;;;8.65;;
17818;SDS011;9034;50.284;19.310;2023-06-14T02:50:41;16.38;;;8.95;;
17818;SDS011;9034;50.284;19.310;2023-06-14T02:51:43;17.40;;;9.40;;
17818;SDS011;9034;50.284;19.310;2023-06-14T02:52:45;13.45;;;9.35;;
17818;SDS011;9034;50.284;19.310;2023-06-14T02:53:48;10.27;;;8.43;;
17818;SDS011;9034;50.284;19.310;2023-06-14T02:54:51;11.68;;;8.93;;
17818;SDS011;9034;50.284;19.310;2023-06-14T02:55:53;13.05;;;9.13;;
17818;SDS011;9034;50.284;19.310;2023-06-14T02:56:58;11.30;;;8.45;;
17818;SDS011;9034;50.284;19.310;2023-06-14T02:58:00;11.27;;;8.65;;
17818;SDS011;9034;50.284;19.310;2023-06-14T02:59:03;10.98;;;8.50;;
17818;SDS011;9034;50.284;19.310;2023-06-14T03:00:06;10.80;;;8.57;;
17818;SDS011;9034;50.284;19.310;2023-06-14T03:01:16;12.52;;;8.77;;
17818;SDS011;9034;50.284;19.310;2023-06-14T03:02:19;11.68;;;8.05;;
17818;SDS011;9034;50.284;19.310;2023-06-14T03:03:22;9.30;;;8.30;;
17818;SDS011;9034;50.284;19.310;2023-06-14T03:04:29;8.95;;;7.90;;
17818;SDS011;9034;50.284;19.310;2023-06-14T03:05:31;9.20;;;7.90;;
17818;SDS011;9034;50.284;19.310;2023-06-14T03:06:34;12.38;;;8.25;;
17818;SDS011;9034;50.284;19.310;2023-06-14T03:07:37;12.23;;;8.73;;
17818;SDS011;9034;50.284;19.310;2023-06-14T03:08:43;11.68;;;8.73;;
17818;SDS011;9034;50.284;19.310;2023-06-14T03:09:49;9.25;;;8.05;;
17818;SDS011;9034;50.284;19.310;2023-06-14T03:10:53;9.90;;;8.30;;
17818;SDS011;9034;50.284;19.310;2023-06-14T03:11:54;11.35;;;8.13;;
17818;SDS011;9034;50.284;19.310;2023-06-14T03:12:59;10.88;;;8.43;;
17818;SDS011;9034;50.284;19.310;2023-06-14T03:14:02;9.13;;;8.20;;
17818;SDS011;9034;50.284;19.310;2023-06-14T03:15:06;10.20;;;7.85;;
17818;SDS011;9034;50.284;19.310;2023-06-14T03:16:13;12.18;;;8.27;;
17818;SDS011;9034;50.284;19.310;2023-06-14T03:17:16;12.70;;;8.10;;
17818;SDS011;9034;50.284;19.310;2023-06-14T03:18:19;10.77;;;9.13;;
17818;SDS011;9034;50.284;19.310;2023-06-14T03:19:28;12.48;;;8.43;;
17818;SDS011;9034;50.284;19.310;2023-06-14T03:20:30;12.70;;;8.63;;
17818;SDS011;9034;50.284;19.310;2023-06-14T03:21:34;14.15;;;8.23;;
17818;SDS011;9034;50.284;19.310;2023-06-14T03:22:37;11.65;;;8.35;;
17818;SDS011;9034;50.284;19.310;2023-06-14T03:23:41;13.55;;;8.63;;
17818;SDS011;9034;50.284;19.310;2023-06-14T03:24:43;12.50;;;8.57;;
17818;SDS011;9034;50.284;19.310;2023-06-14T03:25:48;9.18;;;8.15;;
17818;SDS011;9034;50.284;19.310;2023-06-14T03:26:51;9.50;;;8.50;;
17818;SDS011;9034;50.284;19.310;2023-06-14T03:27:54;10.82;;;7.50;;
17818;SDS011;9034;50.284;19.310;2023-06-14T03:28:57;10.68;;;8.70;;
17818;SDS011;9034;50.284;19.310;2023-06-14T03:30:00;9.20;;;7.82;;
17818;SDS011;9034;50.284;19.310;2023-06-14T03:31:04;9.77;;;7.93;;
17818;SDS011;9034;50.284;19.310;2023-06-14T03:32:08;10.10;;;8.13;;
17818;SDS011;9034;50.284;19.310;2023-06-14T03:33:16;10.30;;;8.27;;
17818;SDS011;9034;50.284;19.310;2023-06-14T03:34:19;19.20;;;17.15;;
17818;SDS011;9034;50.284;19.310;2023-06-14T03:35:21;15.63;;;14.02;;
17818;SDS011;9034;50.284;19.310;2023-06-14T03:36:24;18.58;;;12.63;;
17818;SDS011;9034;50.284;19.310;2023-06-14T03:37:28;26.00;;;12.40;;
17818;SDS011;9034;50.284;19.310;2023-06-14T03:38:30;21.17;;;11.32;;
17818;SDS011;9034;50.284;19.310;2023-06-14T03:39:36;17.48;;;11.90;;
17818;SDS011;9034;50.284;19.310;2023-06-14T03:40:38;12.73;;;10.40;;
17818;SDS011;9034;50.284;19.310;2023-06-14T03:41:41;13.48;;;10.55;;
17818;SDS011;9034;50.284;19.310;2023-06-14T03:42:44;12.57;;;9.20;;
17818;SDS011;9034;50.284;19.310;2023-06-14T03:43:46;14.82;;;10.80;;
17818;SDS011;9034;50.284;19.310;2023-06-14T03:44:51;16.27;;;11.43;;
17818;SDS011;9034;50.284;19.310;2023-06-14T03:45:55;14.13;;;10.45;;
17818;SDS011;9034;50.284;19.310;2023-06-14T03:46:59;12.65;;;9.32;;
17818;SDS011;9034;50.284;19.310;2023-06-14T03:48:06;12.25;;;9.02;;
17818;SDS011;9034;50.284;19.310;2023-06-14T03:49:10;10.88;;;8.98;;
17818;SDS011;9034;50.284;19.310;2023-06-14T03:50:12;11.15;;;8.52;;
17818;SDS011;9034;50.284;19.310;2023-06-14T03:51:17;10.30;;;8.27;;
17818;SDS011;9034;50.284;19.310;2023-06-14T03:52:19;9.98;;;8.18;;
17818;SDS011;9034;50.284;19.310;2023-06-14T03:53:23;10.20;;;8.18;;
17818;SDS011;9034;50.284;19.310;2023-06-14T03:54:27;11.60;;;8.15;;
17818;SDS011;9034;50.284;19.310;2023-06-14T03:55:52;11.35;;;8.75;;
17818;SDS011;9034;50.284;19.310;2023-06-14T03:57:00;11.52;;;8.82;;
17818;SDS011;9034;50.284;19.310;2023-06-14T03:58:03;9.57;;;7.95;;
17818;SDS011;9034;50.284;19.310;2023-06-14T03:59:06;12.05;;;7.88;;
17818;SDS011;9034;50.284;19.310;2023-06-14T04:00:11;11.23;;;8.43;;
17818;SDS011;9034;50.284;19.310;2023-06-14T04:01:17;9.95;;;7.85;;
17818;SDS011;9034;50.284;19.310;2023-06-14T04:02:20;10.30;;;8.30;;
17818;SDS011;9034;50.284;19.310;2023-06-14T04:03:22;10.27;;;8.48;;
17818;SDS011;9034;50.284;19.310;2023-06-14T04:04:26;9.95;;;8.20;;
17818;SDS011;9034;50.284;19.310;2023-06-14T04:05:32;11.20;;;8.25;;
17818;SDS011;9034;50.284;19.310;2023-06-14T04:06:35;10.20;;;8.20;;
17818;SDS011;9034;50.284;19.310;2023-06-14T04:07:39;9.55;;;7.78;;
17818;SDS011;9034;50.284;19.310;2023-06-14T04:08:46;9.90;;;7.68;;
17818;SDS011;9034;50.284;19.310;2023-06-14T04:09:48;10.43;;;8.70;;
17818;SDS011;9034;50.284;19.310;2023-06-14T04:10:51;10.70;;;8.55;;
17818;SDS011;9034;50.284;19.310;2023-06-14T04:11:52;10.00;;;7.78;;
17818;SDS011;9034;50.284;19.310;2023-06-14T04:12:58;9.57;;;7.80;;
17818;SDS011;9034;50.284;19.310;2023-06-14T04:14:01;8.75;;;7.57;;
17818;SDS011;9034;50.284;19.310;2023-06-14T04:15:05;10.23;;;7.82;;
17818;SDS011;9034;50.284;19.310;2023-06-14T04:16:22;10.00;;;7.72;;
17818;SDS011;9034;50.284;19.310;2023-06-14T04:17:25;11.05;;;8.35;;
17818;SDS011;9034;50.284;19.310;2023-06-14T04:18:27;10.15;;;8.38;;
17818;SDS011;9034;50.284;19.310;2023-06-14T04:19:30;10.65;;;8.40;;
17818;SDS011;9034;50.284;19.310;2023-06-14T04:20:32;10.55;;;8.23;;
17818;SDS011;9034;50.284;19.310;2023-06-14T04:21:35;10.82;;;7.90;;
17818;SDS011;9034;50.284;19.310;2023-06-14T04:22:38;10.65;;;8.48;;
17818;SDS011;9034;50.284;19.310;2023-06-14T04:23:42;11.50;;;7.82;;
17818;SDS011;9034;50.284;19.310;2023-06-14T04:24:47;10.82;;;8.82;;
17818;SDS011;9034;50.284;19.310;2023-06-14T04:26:05;10.85;;;8.45;;
17818;SDS011;9034;50.284;19.310;2023-06-14T04:27:08;11.30;;;8.50;;
17818;SDS011;9034;50.284;19.310;2023-06-14T04:28:11;10.63;;;7.47;;
17818;SDS011;9034;50.284;19.310;2023-06-14T04:29:17;10.05;;;7.88;;
17818;SDS011;9034;50.284;19.310;2023-06-14T04:30:28;10.60;;;8.05;;
17818;SDS011;9034;50.284;19.310;2023-06-14T04:31:34;9.73;;;8.70;;
17818;SDS011;9034;50.284;19.310;2023-06-14T04:32:40;11.27;;;8.20;;
17818;SDS011;9034;50.284;19.310;2023-06-14T04:33:46;9.35;;;7.72;;
17818;SDS011;9034;50.284;19.310;2023-06-14T04:34:53;9.90;;;7.97;;
17818;SDS011;9034;50.284;19.310;2023-06-14T04:35:56;11.77;;;8.35;;
17818;SDS011;9034;50.284;19.310;2023-06-14T04:36:58;9.25;;;7.68;;
17818;SDS011;9034;50.284;19.310;2023-06-14T04:38:06;11.18;;;8.30;;
17818;SDS011;9034;50.284;19.310;2023-06-14T04:39:11;11.63;;;8.13;;
17818;SDS011;9034;50.284;19.310;2023-06-14T04:40:14;10.68;;;8.52;;
17818;SDS011;9034;50.284;19.310;2023-06-14T04:41:17;11.45;;;8.85;;
17818;SDS011;9034;50.284;19.310;2023-06-14T04:42:20;11.00;;;8.50;;
17818;SDS011;9034;50.284;19.310;2023-06-14T04:43:22;12.45;;;9.20;;
17818;SDS011;9034;50.284;19.310;2023-06-14T04:44:28;13.02;;;8.52;;
17818;SDS011;9034;50.284;19.310;2023-06-14T04:45:36;10.93;;;8.45;;
17818;SDS011;9034;50.284;19.310;2023-06-14T04:46:40;10.88;;;8.93;;
17818;SDS011;9034;50.284;19.310;2023-06-14T04:47:55;13.55;;;9.30;;
17818;SDS011;9034;50.284;19.310;2023-06-14T04:49:01;9.93;;;8.23;;
17818;SDS011;9034;50.284;19.310;2023-06-14T04:50:04;15.23;;;9.95;;
17818;SDS011;9034;50.284;19.310;2023-06-14T04:51:07;13.95;;;9.55;;
17818;SDS011;9034;50.284;19.310;2023-06-14T04:52:09;17.98;;;9.60;;
17818;SDS011;9034;50.284;19.310;2023-06-14T04:53:17;15.75;;;10.00;;
17818;SDS011;9034;50.284;19.310;2023-06-14T04:54:22;11.65;;;9.82;;
17818;SDS011;9034;50.284;19.310;2023-06-14T04:55:27;18.20;;;8.75;;
17818;SDS011;9034;50.284;19.310;2023-06-14T04:56:29;13.32;;;9.77;;
17818;SDS011;9034;50.284;19.310;2023-06-14T04:57:32;12.75;;;9.13;;
17818;SDS011;9034;50.284;19.310;2023-06-14T04:58:34;10.63;;;9.38;;
17818;SDS011;9034;50.284;19.310;2023-06-14T04:59:38;11.23;;;9.30;;
17818;SDS011;9034;50.284;19.310;2023-06-14T05:00:39;13.60;;;10.55;;
17818;SDS011;9034;50.284;19.310;2023-06-14T05:01:45;13.50;;;9.70;;
17818;SDS011;9034;50.284;19.310;2023-06-14T05:02:49;12.60;;;9.95;;
17818;SDS011;9034;50.284;19.310;2023-06-14T05:03:55;13.90;;;9.52;;
17818;SDS011;9034;50.284;19.310;2023-06-14T05:04:57;13.57;;;9.45;;
17818;SDS011;9034;50.284;19.310;2023-06-14T05:06:00;14.82;;;9.95;;
17818;SDS011;9034;50.284;19.310;2023-06-14T05:07:02;12.40;;;9.00;;
17818;SDS011;9034;50.284;19.310;2023-06-14T05:08:07;12.65;;;9.05;;
17818;SDS011;9034;50.284;19.310;2023-06-14T05:09:10;12.23;;;9.20;;
17818;SDS011;9034;50.284;19.310;2023-06-14T05:10:13;12.77;;;9.10;;
17818;SDS011;9034;50.284;19.310;2023-06-14T05:11:16;12.68;;;9.38;;
17818;SDS011;9034;50.284;19.310;2023-06-14T05:12:20;10.10;;;8.07;;
17818;SDS011;9034;50.284;19.310;2023-06-14T05:13:23;12.20;;;9.52;;
17818;SDS011;9034;50.284;19.310;2023-06-14T05:14:26;10.05;;;8.60;;
17818;SDS011;9034;50.284;19.310;2023-06-14T05:15:28;10.57;;;8.52;;
17818;SDS011;9034;50.284;19.310;2023-06-14T05:16:31;13.07;;;8.90;;
17818;SDS011;9034;50.284;19.310;2023-06-14T05:17:34;11.95;;;9.48;;
17818;SDS011;9034;50.284;19.310;2023-06-14T05:18:38;11.18;;;9.43;;
17818;SDS011;9034;50.284;19.310;2023-06-14T05:19:41;11.02;;;8.57;;
17818;SDS011;9034;50.284;19.310;2023-06-14T05:20:44;10.63;;;9.52;;
17818;SDS011;9034;50.284;19.310;2023-06-14T05:21:47;10.30;;;9.20;;
17818;SDS011;9034;50.284;19.310;2023-06-14T05:22:50;11.15;;;9.50;;
17818;SDS011;9034;50.284;19.310;2023-06-14T05:23:53;10.93;;;9.63;;
17818;SDS011;9034;50.284;19.310;2023-06-14T05:24:57;12.38;;;9.95;;
17818;SDS011;9034;50.284;19.310;2023-06-14T05:25:59;12.05;;;9.90;;
17818;SDS011;9034;50.284;19.310;2023-06-14T05:27:04;12.85;;;10.45;;
17818;SDS011;9034;50.284;19.310;2023-06-14T05:28:06;13.48;;;10.00;;
17818;SDS011;9034;50.284;19.310;2023-06-14T05:29:09;12.70;;;10.00;;
17818;SDS011;9034;50.284;19.310;2023-06-14T05:30:12;14.77;;;10.90;;
17818;SDS011;9034;50.284;19.310;2023-06-14T05:31:15;13.25;;;11.40;;
17818;SDS011;9034;50.284;19.310;2023-06-14T05:32:17;12.48;;;10.57;;
17818;SDS011;9034;50.284;19.310;2023-06-14T05:33:22;13.77;;;11.32;;
17818;SDS011;9034;50.284;19.310;2023-06-14T05:34:24;12.20;;;10.63;;
17818;SDS011;9034;50.284;19.310;2023-06-14T05:35:27;13.98;;;10.60;;
17818;SDS011;9034;50.284;19.310;2023-06-14T05:36:29;14.05;;;11.00;;
17818;SDS011;9034;50.284;19.310;2023-06-14T05:37:32;14.98;;;11.77;;
17818;SDS011;9034;50.284;19.310;2023-06-14T05:38:34;14.18;;;11.35;;
17818;SDS011;9034;50.284;19.310;2023-06-14T05:39:37;15.20;;;10.75;;
17818;SDS011;9034;50.284;19.310;2023-06-14T05:40:38;13.30;;;10.98;;
17818;SDS011;9034;50.284;19.310;2023-06-14T05:41:41;14.55;;;11.35;;
17818;SDS011;9034;50.284;19.310;2023-06-14T05:42:43;14.70;;;10.73;;
17818;SDS011;9034;50.284;19.310;2023-06-14T05:43:46;12.82;;;11.23;;
17818;SDS011;9034;50.284;19.310;2023-06-14T05:44:48;17.77;;;12.65;;
17818;SDS011;9034;50.284;19.310;2023-06-14T05:45:51;15.88;;;11.90;;
17818;SDS011;9034;50.284;19.310;2023-06-14T05:46:52;14.20;;;11.50;;
17818;SDS011;9034;50.284;19.310;2023-06-14T05:47:56;16.52;;;11.27;;
17818;SDS011;9034;50.284;19.310;2023-06-14T05:48:59;14.65;;;11.98;;
17818;SDS011;9034;50.284;19.310;2023-06-14T05:50:02;20.67;;;12.02;;
17818;SDS011;9034;50.284;19.310;2023-06-14T05:51:04;14.65;;;11.57;;
17818;SDS011;9034;50.284;19.310;2023-06-14T05:52:10;16.90;;;11.52;;
17818;SDS011;9034;50.284;19.310;2023-06-14T05:53:14;18.55;;;11.73;;
17818;SDS011;9034;50.284;19.310;2023-06-14T05:54:16;30.63;;;11.38;;
17818;SDS011;9034;50.284;19.310;2023-06-14T05:55:19;17.45;;;11.43;;
17818;SDS011;9034;50.284;19.310;2023-06-14T05:56:21;20.92;;;11.18;;
17818;SDS011;9034;50.284;19.310;2023-06-14T05:57:24;13.07;;;10.95;;
17818;SDS011;9034;50.284;19.310;2023-06-14T05:58:25;15.20;;;10.98;;
17818;SDS011;9034;50.284;19.310;2023-06-14T05:59:28;12.82;;;10.05;;
17818;SDS011;9034;50.284;19.310;2023-06-14T06:00:30;15.30;;;10.60;;
17818;SDS011;9034;50.284;19.310;2023-06-14T06:01:33;11.00;;;8.68;;
17818;SDS011;9034;50.284;19.310;2023-06-14T06:02:38;11.55;;;8.38;;
17818;SDS011;9034;50.284;19.310;2023-06-14T06:03:41;10.68;;;8.50;;
17818;SDS011;9034;50.284;19.310;2023-06-14T06:04:44;11.02;;;8.38;;
17818;SDS011;9034;50.284;19.310;2023-06-14T06:05:47;11.32;;;8.18;;
17818;SDS011;9034;50.284;19.310;2023-06-14T06:06:49;14.40;;;7.60;;
17818;SDS011;9034;50.284;19.310;2023-06-14T06:07:52;13.95;;;7.90;;
17818;SDS011;9034;50.284;19.310;2023-06-14T06:08:54;8.23;;;7.35;;
17818;SDS011;9034;50.284;19.310;2023-06-14T06:09:57;7.88;;;6.30;;
17818;SDS011;9034;50.284;19.310;2023-06-14T06:10:59;10.95;;;7.00;;
17818;SDS011;9034;50.284;19.310;2023-06-14T06:12:04;8.20;;;6.93;;
17818;SDS011;9034;50.284;19.310;2023-06-14T06:13:08;7.60;;;6.40;;
17818;SDS011;9034;50.284;19.310;2023-06-14T06:14:12;9.15;;;6.15;;
17818;SDS011;9034;50.284;19.310;2023-06-14T06:15:14;8.70;;;6.93;;
17818;SDS011;9034;50.284;19.310;2023-06-14T06:16:18;6.97;;;6.28;;
17818;SDS011;9034;50.284;19.310;2023-06-14T06:17:20;6.28;;;5.63;;
17818;SDS011;9034;50.284;19.310;2023-06-14T06:18:23;5.50;;;4.93;;
17818;SDS011;9034;50.284;19.310;2023-06-14T06:19:26;5.30;;;4.80;;
17818;SDS011;9034;50.284;19.310;2023-06-14T06:20:29;6.00;;;4.55;;